Time,TemperatureF,DewpointF,PressureIn,WindDirection,WindDirectionDegrees,WindSpeedMPH,WindSpeedGustMPH,Humidity,HourlyPrecipIn,Conditions,Clouds,dailyrainin,SoftwareType,DateUTC
2013-01-08 00:00:00,39.8,37.1,30.15,NNE,23,0.0,0.0,90,0.00,,,0.00,WUHU216HW,2013-01-08 08:00:00,
2013-01-08 00:05:00,39.8,37.1,30.15,NNE,23,0.0,0.0,90,0.00,,,0.00,WUHU216HW,2013-01-08 08:05:00,
2013-01-08 00:10:00,39.8,37.1,30.15,NNE,23,0.0,0.0,90,0.00,,,0.00,WUHU216HW,2013-01-08 08:10:00,
2013-01-08 00:30:00,39.2,36.5,30.15,NE,45,0.0,0.0,90,0.00,,,0.00,WUHU216HW,2013-01-08 08:30:00,
2013-01-08 00:35:00,39.2,36.5,30.15,NE,45,0.0,0.0,90,0.00,,,0.00,WUHU216HW,2013-01-08 08:35:00,
2013-01-08 01:00:00,38.7,36.0,30.15,NNE,23,0.0,0.0,90,0.00,,,0.00,WUHU216HW,2013-01-08 09:00:00,
2013-01-08 01:05:00,38.7,36.0,30.15,NNE,23,0.0,0.0,90,0.00,,,0.00,WUHU216HW,2013-01-08 09:05:00,
2013-01-08 01:10:00,38.7,36.0,30.15,NNE,23,0.0,0.0,90,0.00,,,0.00,WUHU216HW,2013-01-08 09:10:00,
2013-01-08 01:30:00,38.0,35.3,30.15,NNE,23,0.0,0.0,90,0.00,,,0.00,WUHU216HW,2013-01-08 09:30:00,
2013-01-08 01:35:00,38.0,35.3,30.15,NNE,23,0.0,0.0,90,0.00,,,0.00,WUHU216HW,2013-01-08 09:35:00,
2013-01-08 02:00:00,37.4,34.7,30.16,NE,45,0.0,0.0,90,0.00,,,0.00,WUHU216HW,2013-01-08 10:00:00,
2013-01-08 02:05:00,37.4,34.7,30.16,NE,45,0.0,0.0,90,0.00,,,0.00,WUHU216HW,2013-01-08 10:05:00,
2013-01-08 02:30:00,36.9,34.2,30.15,NNE,23,0.0,0.0,90,0.00,,,0.00,WUHU216HW,2013-01-08 10:30:00,
2013-01-08 02:35:00,36.9,34.2,30.15,NNE,23,0.0,0.0,90,0.00,,,0.00,WUHU216HW,2013-01-08 10:35:00,
2013-01-08 02:40:00,36.9,34.2,30.15,NNE,23,0.0,0.0,90,0.00,,,0.00,WUHU216HW,2013-01-08 10:40:00,
2013-01-08 03:00:00,36.5,33.8,30.15,NNE,23,0.2,0.2,90,0.00,,,0.00,WUHU216HW,2013-01-08 11:00:00,
2013-01-08 03:05:00,36.5,33.8,30.15,NNE,23,0.0,0.2,90,0.00,,,0.00,WUHU216HW,2013-01-08 11:05:00,
2013-01-08 03:10:00,36.5,33.8,30.15,NNE,23,0.0,0.0,90,0.00,,,0.00,WUHU216HW,2013-01-08 11:10:00,
2013-01-08 03:30:00,36.4,33.9,30.15,NNE,23,0.0,0.0,91,0.00,,,0.00,WUHU216HW,2013-01-08 11:30:00,
2013-01-08 03:31:00,36.4,33.9,30.14,NNE,23,0.0,0.0,91,0.00,,,0.00,WUHU216HW,2013-01-08 11:31:00,
2013-01-08 03:36:00,36.4,33.9,30.14,NNE,23,0.0,0.0,91,0.00,,,0.00,WUHU216HW,2013-01-08 11:36:00,
2013-01-08 04:00:00,35.8,33.4,30.15,NNE,23,0.0,0.0,91,0.00,,,0.00,WUHU216HW,2013-01-08 12:00:00,
2013-01-08 04:05:00,35.8,33.4,30.15,NNE,23,0.0,0.0,91,0.00,,,0.00,WUHU216HW,2013-01-08 12:05:00,
2013-01-08 04:30:00,35.6,33.2,30.15,NNE,23,0.2,0.2,91,0.00,,,0.00,WUHU216HW,2013-01-08 12:30:00,
2013-01-08 04:35:00,35.6,33.2,30.15,NNE,23,0.0,0.2,91,0.00,,,0.00,WUHU216HW,2013-01-08 12:35:00,
2013-01-08 05:00:00,35.5,33.3,30.14,NNE,23,0.0,0.0,92,0.00,,,0.00,WUHU216HW,2013-01-08 13:00:00,
2013-01-08 05:05:00,35.5,33.3,30.14,NNE,23,0.0,0.0,92,0.00,,,0.00,WUHU216HW,2013-01-08 13:05:00,
2013-01-08 05:10:00,35.5,33.3,30.14,NNE,23,0.0,0.0,92,0.00,,,0.00,WUHU216HW,2013-01-08 13:10:00,
2013-01-08 05:30:00,35.1,32.9,30.14,NE,45,0.2,0.2,92,0.00,,,0.00,WUHU216HW,2013-01-08 13:30:00,
2013-01-08 05:35:00,35.1,32.9,30.14,NE,45,0.2,0.2,92,0.00,,,0.00,WUHU216HW,2013-01-08 13:35:00,
2013-01-08 06:00:00,35.6,33.5,30.15,NNE,23,0.0,0.0,92,0.00,,,0.00,WUHU216HW,2013-01-08 14:00:00,
2013-01-08 06:05:00,35.6,33.5,30.15,NNE,23,0.0,0.0,92,0.00,,,0.00,WUHU216HW,2013-01-08 14:05:00,
2013-01-08 06:30:00,36.7,34.6,30.15,NE,45,0.0,0.0,92,0.00,,,0.00,WUHU216HW,2013-01-08 14:30:00,
2013-01-08 06:35:00,36.7,34.6,30.15,NE,45,0.0,0.0,92,0.00,,,0.00,WUHU216HW,2013-01-08 14:35:00,
2013-01-08 06:40:00,36.7,34.6,30.15,NE,45,0.0,0.0,92,0.00,,,0.00,WUHU216HW,2013-01-08 14:40:00,
2013-01-08 07:00:00,37.3,35.1,30.15,NW,315,0.0,0.0,92,0.00,,,0.00,WUHU216HW,2013-01-08 15:00:00,
2013-01-08 07:05:00,37.3,35.1,30.15,NNW,338,0.4,0.4,92,0.00,,,0.00,WUHU216HW,2013-01-08 15:05:00,
2013-01-08 07:30:00,37.4,35.3,30.17,NNE,23,0.4,0.4,92,0.00,,,0.00,WUHU216HW,2013-01-08 15:30:00,
2013-01-08 07:35:00,37.4,35.3,30.17,NNE,23,0.2,0.4,92,0.00,,,0.00,WUHU216HW,2013-01-08 15:35:00,
2013-01-08 07:40:00,37.4,35.3,30.17,NNE,23,0.2,0.2,92,0.00,,,0.00,WUHU216HW,2013-01-08 15:40:00,
2013-01-08 08:00:00,37.4,35.3,30.18,NE,45,0.2,0.2,92,0.00,,,0.00,WUHU216HW,2013-01-08 16:00:00,
2013-01-08 08:05:00,37.4,35.3,30.18,NE,45,0.0,0.2,92,0.00,,,0.00,WUHU216HW,2013-01-08 16:05:00,
2013-01-08 08:10:00,37.4,35.3,30.18,NE,45,0.0,0.0,92,0.00,,,0.00,WUHU216HW,2013-01-08 16:10:00,
2013-01-08 08:30:00,38.2,36.0,30.19,NE,45,0.0,0.0,92,0.00,,,0.00,WUHU216HW,2013-01-08 16:30:00,
2013-01-08 08:31:00,38.2,36.0,30.18,NE,45,0.0,0.0,92,0.00,,,0.00,WUHU216HW,2013-01-08 16:31:00,
2013-01-08 08:35:00,38.2,36.0,30.18,NE,45,0.0,0.0,92,0.00,,,0.00,WUHU216HW,2013-01-08 16:35:00,
2013-01-08 09:00:00,39.4,37.8,30.20,East,90,0.4,0.4,94,0.00,,,0.00,WUHU216HW,2013-01-08 17:00:00,
2013-01-08 09:05:00,39.4,37.8,30.20,East,90,0.4,0.7,94,0.00,,,0.00,WUHU216HW,2013-01-08 17:05:00,
2013-01-08 09:10:00,39.4,37.8,30.20,East,90,0.4,0.7,94,0.00,,,0.00,WUHU216HW,2013-01-08 17:10:00,
2013-01-08 09:30:00,41.0,39.2,30.20,NNE,23,0.2,0.2,93,0.00,,,0.00,WUHU216HW,2013-01-08 17:30:00,
2013-01-08 09:36:00,41.2,39.3,30.19,ENE,68,0.4,0.4,93,0.00,,,0.00,WUHU216HW,2013-01-08 17:36:00,
2013-01-08 10:00:00,42.7,40.8,30.20,West,270,0.4,0.4,93,0.00,,,0.00,WUHU216HW,2013-01-08 18:00:00,
2013-01-08 10:05:00,42.7,40.8,30.20,SW,225,0.7,0.7,93,0.00,,,0.00,WUHU216HW,2013-01-08 18:05:00,
2013-01-08 10:10:00,42.7,40.8,30.20,SW,225,0.7,0.7,93,0.00,,,0.00,WUHU216HW,2013-01-08 18:10:00,
2013-01-08 10:30:00,45.0,43.1,30.20,SSW,203,0.0,0.0,93,0.00,,,0.00,WUHU216HW,2013-01-08 18:30:00,
2013-01-08 10:35:00,45.0,43.1,30.20,SSW,203,0.0,0.0,93,0.00,,,0.00,WUHU216HW,2013-01-08 18:35:00,
2013-01-08 11:00:00,47.7,44.4,30.18,SSE,158,0.0,0.0,88,0.00,,,0.00,WUHU216HW,2013-01-08 19:00:00,
2013-01-08 11:05:00,47.7,44.4,30.18,ESE,113,0.0,0.0,88,0.00,,,0.00,WUHU216HW,2013-01-08 19:05:00,
2013-01-08 11:10:00,47.7,44.4,30.18,ESE,113,0.0,0.0,88,0.00,,,0.00,WUHU216HW,2013-01-08 19:10:00,
2013-01-08 11:30:00,50.4,44.7,30.16,West,270,1.1,2.0,81,0.00,,,0.00,WUHU216HW,2013-01-08 19:30:00,
2013-01-08 11:35:00,50.4,44.7,30.16,West,270,1.1,2.0,81,0.00,,,0.00,WUHU216HW,2013-01-08 19:35:00,
2013-01-08 11:40:00,50.4,44.7,30.16,West,270,1.1,1.1,81,0.00,,,0.00,WUHU216HW,2013-01-08 19:40:00,
2013-01-08 12:00:00,52.2,45.2,30.14,South,180,0.0,0.0,77,0.00,,,0.00,WUHU216HW,2013-01-08 20:00:00,
2013-01-08 12:05:00,52.2,45.2,30.14,SSE,158,0.2,0.2,77,0.00,,,0.00,WUHU216HW,2013-01-08 20:05:00,
2013-01-08 12:10:00,52.2,45.2,30.14,SSE,158,0.2,0.2,77,0.00,,,0.00,WUHU216HW,2013-01-08 20:10:00,
2013-01-08 12:30:00,54.0,46.3,30.14,West,270,2.5,2.5,75,0.00,,,0.00,WUHU216HW,2013-01-08 20:30:00,
2013-01-08 12:35:00,54.0,46.3,30.14,West,270,2.5,2.5,75,0.00,,,0.00,WUHU216HW,2013-01-08 20:35:00,
2013-01-08 12:40:00,54.0,46.3,30.14,West,270,2.5,2.5,75,0.00,,,0.00,WUHU216HW,2013-01-08 20:40:00,
2013-01-08 13:00:00,55.3,46.7,30.12,West,270,1.8,1.8,73,0.00,,,0.00,WUHU216HW,2013-01-08 21:00:00,
2013-01-08 13:05:00,55.4,46.9,30.12,WSW,248,2.0,2.0,73,0.00,,,0.00,WUHU216HW,2013-01-08 21:05:00,
2013-01-08 13:10:00,55.4,46.9,30.12,WSW,248,2.0,2.0,73,0.00,,,0.00,WUHU216HW,2013-01-08 21:10:00,
2013-01-08 13:30:00,57.2,47.5,30.12,WSW,248,1.8,3.1,70,0.00,,,0.00,WUHU216HW,2013-01-08 21:30:00,
2013-01-08 13:35:00,57.2,47.5,30.12,WSW,248,1.8,3.1,70,0.00,,,0.00,WUHU216HW,2013-01-08 21:35:00,
2013-01-08 14:00:00,58.7,47.7,30.11,NW,315,0.4,1.6,67,0.00,,,0.00,WUHU216HW,2013-01-08 22:00:00,
2013-01-08 14:05:00,58.7,48.2,30.11,WSW,248,1.8,1.8,68,0.00,,,0.00,WUHU216HW,2013-01-08 22:05:00,
2013-01-08 14:10:00,58.7,48.2,30.11,WSW,248,1.8,1.8,68,0.00,,,0.00,WUHU216HW,2013-01-08 22:10:00,
2013-01-08 14:30:00,59.4,48.1,30.11,WSW,248,2.2,2.9,66,0.00,,,0.00,WUHU216HW,2013-01-08 22:30:00,
2013-01-08 14:36:00,59.4,47.2,30.11,WSW,248,1.1,2.9,64,0.00,,,0.00,WUHU216HW,2013-01-08 22:36:00,
2013-01-08 14:41:00,59.4,47.2,30.11,WSW,248,1.1,2.2,64,0.00,,,0.00,WUHU216HW,2013-01-08 22:41:00,
2013-01-08 15:00:00,60.7,48.9,30.11,West,270,1.1,1.1,65,0.00,,,0.00,WUHU216HW,2013-01-08 23:00:00,
2013-01-08 15:05:00,60.7,48.9,30.11,West,270,0.4,1.1,65,0.00,,,0.00,WUHU216HW,2013-01-08 23:05:00,
2013-01-08 15:10:00,60.7,48.9,30.11,West,270,0.4,0.4,65,0.00,,,0.00,WUHU216HW,2013-01-08 23:10:00,
2013-01-08 15:30:00,60.3,48.1,30.10,West,270,1.3,1.3,64,0.00,,,0.00,WUHU216HW,2013-01-08 23:30:00,
2013-01-08 15:35:00,60.3,48.1,30.10,West,270,1.3,1.3,64,0.00,,,0.00,WUHU216HW,2013-01-08 23:35:00,
2013-01-08 16:00:00,58.9,46.3,30.10,WNW,293,1.1,1.1,63,0.00,,,0.00,WUHU216HW,2013-01-09 00:00:00,
2013-01-08 16:05:00,58.9,46.3,30.10,WSW,248,1.8,1.8,63,0.00,,,0.00,WUHU216HW,2013-01-09 00:05:00,
2013-01-08 16:30:00,56.9,45.2,30.09,West,270,2.5,2.5,65,0.00,,,0.00,WUHU216HW,2013-01-09 00:30:00,
2013-01-08 16:35:00,56.7,45.0,30.09,West,270,1.6,2.5,65,0.00,,,0.00,WUHU216HW,2013-01-09 00:35:00,
2013-01-08 16:41:00,56.7,45.0,30.09,West,270,1.6,1.6,65,0.00,,,0.00,WUHU216HW,2013-01-09 00:41:00,
2013-01-08 17:00:00,54.7,45.6,30.09,WNW,293,0.9,0.9,71,0.00,,,0.00,WUHU216HW,2013-01-09 01:00:00,
2013-01-08 17:05:00,54.7,45.6,30.09,WNW,293,0.9,0.9,71,0.00,,,0.00,WUHU216HW,2013-01-09 01:05:00,
2013-01-08 17:10:00,54.7,45.6,30.09,WNW,293,0.9,0.9,71,0.00,,,0.00,WUHU216HW,2013-01-09 01:10:00,
2013-01-08 17:30:00,52.2,43.5,30.09,NNE,23,0.0,0.0,72,0.00,,,0.00,WUHU216HW,2013-01-09 01:30:00,
2013-01-08 17:35:00,52.2,43.5,30.09,NNE,23,0.0,0.0,72,0.00,,,0.00,WUHU216HW,2013-01-09 01:35:00,
2013-01-08 18:00:00,49.5,42.6,30.09,WSW,248,0.0,0.0,77,0.00,,,0.00,WUHU216HW,2013-01-09 02:00:00,
2013-01-08 18:05:00,49.5,42.6,30.09,WSW,248,0.0,0.0,77,0.00,,,0.00,WUHU216HW,2013-01-09 02:05:00,
2013-01-08 18:30:00,47.3,41.5,30.10,NNE,23,0.0,0.0,80,0.00,,,0.00,WUHU216HW,2013-01-09 02:30:00,
2013-01-08 18:31:00,47.3,41.5,30.09,NNE,23,0.0,0.0,80,0.00,,,0.00,WUHU216HW,2013-01-09 02:31:00,
2013-01-08 18:36:00,47.3,41.5,30.09,NNE,23,0.0,0.0,80,0.00,,,0.00,WUHU216HW,2013-01-09 02:36:00,
2013-01-08 19:00:00,45.7,40.2,30.09,ENE,68,0.4,0.4,81,0.00,,,0.00,WUHU216HW,2013-01-09 03:00:00,
2013-01-08 19:05:00,45.7,40.2,30.09,ENE,68,0.4,0.4,81,0.00,,,0.00,WUHU216HW,2013-01-09 03:05:00,
2013-01-08 19:10:00,45.7,40.2,30.09,ENE,68,0.4,0.4,81,0.00,,,0.00,WUHU216HW,2013-01-09 03:10:00,
2013-01-08 19:30:00,44.3,39.4,30.10,NE,45,0.0,0.0,83,0.00,,,0.00,WUHU216HW,2013-01-09 03:30:00,
2013-01-08 19:35:00,44.3,39.4,30.10,NE,45,0.0,0.0,83,0.00,,,0.00,WUHU216HW,2013-01-09 03:35:00,
2013-01-08 20:00:00,43.0,38.8,30.11,NE,45,0.4,0.4,85,0.00,,,0.00,WUHU216HW,2013-01-09 04:00:00,
2013-01-08 20:05:00,43.0,38.8,30.11,NE,45,0.4,0.4,85,0.00,,,0.00,WUHU216HW,2013-01-09 04:05:00,
2013-01-08 20:10:00,43.0,38.8,30.11,NE,45,0.4,0.4,85,0.00,,,0.00,WUHU216HW,2013-01-09 04:10:00,
2013-01-08 20:30:00,42.1,38.2,30.10,ENE,68,0.2,0.2,86,0.00,,,0.00,WUHU216HW,2013-01-09 04:30:00,
2013-01-08 20:31:00,42.1,38.2,30.10,ENE,68,0.4,0.4,86,0.00,,,0.00,WUHU216HW,2013-01-09 04:31:00,
2013-01-08 20:35:00,42.1,38.2,30.10,ENE,68,0.4,0.4,86,0.00,,,0.00,WUHU216HW,2013-01-09 04:35:00,
2013-01-08 20:40:00,42.1,38.2,30.10,ENE,68,0.4,0.4,86,0.00,,,0.00,WUHU216HW,2013-01-09 04:40:00,
2013-01-08 21:00:00,41.4,37.4,30.09,ENE,68,0.0,0.0,86,0.00,,,0.00,WUHU216HW,2013-01-09 05:00:00,
2013-01-08 21:01:00,41.4,37.4,30.09,ENE,68,0.0,0.0,86,0.00,,,0.00,WUHU216HW,2013-01-09 05:01:00,
2013-01-08 21:03:00,41.4,37.4,30.09,ENE,68,0.0,0.0,86,0.00,,,0.00,WUHU216HW,2013-01-09 05:03:00,
2013-01-08 21:08:00,41.4,37.4,30.09,ENE,68,0.0,0.0,86,0.00,,,0.00,WUHU216HW,2013-01-09 05:08:00,
2013-01-08 21:30:00,40.7,37.1,30.10,NNE,23,0.0,0.0,87,0.00,,,0.00,WUHU216HW,2013-01-09 05:30:00,
2013-01-08 21:35:00,40.7,37.1,30.10,NNE,23,0.0,0.0,87,0.00,,,0.00,WUHU216HW,2013-01-09 05:35:00,
2013-01-08 22:00:00,40.0,36.4,30.11,ENE,68,0.0,0.0,87,0.00,,,0.00,WUHU216HW,2013-01-09 06:00:00,
2013-01-08 22:05:00,40.0,36.4,30.11,ENE,68,0.0,0.0,87,0.00,,,0.00,WUHU216HW,2013-01-09 06:05:00,
2013-01-08 22:10:00,40.0,36.4,30.11,ENE,68,0.0,0.0,87,0.00,,,0.00,WUHU216HW,2013-01-09 06:10:00,
2013-01-08 22:30:00,39.6,36.4,30.12,NNE,23,0.2,0.2,88,0.00,,,0.00,WUHU216HW,2013-01-09 06:30:00,
2013-01-08 22:35:00,39.6,36.4,30.11,NNE,23,0.2,0.2,88,0.00,,,0.00,WUHU216HW,2013-01-09 06:35:00,
2013-01-08 22:41:00,39.6,36.4,30.11,NNE,23,0.2,0.2,88,0.00,,,0.00,WUHU216HW,2013-01-09 06:41:00,
2013-01-08 23:00:00,38.9,35.9,30.12,NNE,23,0.2,0.2,89,0.00,,,0.00,WUHU216HW,2013-01-09 07:00:00,
2013-01-08 23:05:00,38.9,35.9,30.12,NNE,23,0.0,0.2,89,0.00,,,0.00,WUHU216HW,2013-01-09 07:05:00,
2013-01-08 23:10:00,38.9,35.9,30.12,NNE,23,0.0,0.0,89,0.00,,,0.00,WUHU216HW,2013-01-09 07:10:00,
2013-01-08 23:30:00,38.5,35.6,30.11,NNE,23,0.0,0.0,89,0.00,,,0.00,WUHU216HW,2013-01-09 07:30:00,
2013-01-08 23:35:00,38.7,35.7,30.11,NNE,23,0.0,0.0,89,0.00,,,0.00,WUHU216HW,2013-01-09 07:35:00,
2013-01-08 23:40:00,38.7,35.7,30.11,NNE,23,0.0,0.0,89,0.00,,,0.00,WUHU216HW,2013-01-09 07:40:00,